createdAt,value
2019-04-03T00:26:30.757Z,999.92
2019-04-03T00:26:30.835Z,999.92
2019-04-03T00:26:31.071Z,999.89
2019-04-03T00:26:31.208Z,999.93
2019-04-03T00:26:31.817Z,999.90
2019-04-03T00:26:32.392Z,999.91
2019-04-03T00:26:32.997Z,999.91
2019-04-03T00:26:33.589Z,999.92
2019-04-03T00:27:28.093Z,999.85
2019-04-03T00:27:28.668Z,999.88
2019-04-03T00:27:29.273Z,999.87
2019-04-03T00:27:29.869Z,999.88
2019-04-03T00:27:30.468Z,999.93
2019-04-03T00:27:31.178Z,999.92
2019-04-03T00:27:31.666Z,999.90
2019-04-03T00:27:32.286Z,999.94
2019-04-03T00:28:25.725Z,999.89
2019-04-03T00:28:26.325Z,999.88
2019-04-03T00:28:26.921Z,999.87
2019-04-03T00:28:27.523Z,999.94
2019-04-03T00:28:28.120Z,999.95
2019-04-03T00:28:28.720Z,999.98
2019-04-03T00:28:29.321Z,999.96
2019-04-03T00:28:30.034Z,999.97
2019-04-03T00:29:24.407Z,999.89
2019-04-03T00:29:25.001Z,999.89
2019-04-03T00:29:25.601Z,999.91
2019-04-03T00:29:26.196Z,999.90
2019-04-03T00:29:26.801Z,999.95
2019-04-03T00:29:27.399Z,999.99
2019-04-03T00:29:27.996Z,1000.01
2019-04-03T00:29:28.599Z,1000.04
2019-04-03T00:30:23.077Z,999.87
2019-04-03T00:30:23.674Z,999.91
2019-04-03T00:30:24.277Z,999.92
2019-04-03T00:30:24.875Z,999.95
2019-04-03T00:30:25.474Z,999.97
2019-04-03T00:30:26.073Z,999.98
2019-04-03T00:30:26.831Z,1000.02
2019-04-03T00:30:27.275Z,1000.01
2019-04-03T00:31:23.321Z,999.89
2019-04-03T00:31:23.336Z,999.90
2019-04-03T00:31:23.343Z,999.91
2019-04-03T00:31:23.853Z,999.95
2019-04-03T00:31:24.151Z,999.97
2019-04-03T00:31:24.851Z,999.98
2019-04-03T00:31:25.350Z,1000.00
2019-04-03T00:31:25.961Z,999.98
2019-04-03T00:32:19.406Z,999.92
2019-04-03T00:32:20.086Z,999.92
2019-04-03T00:32:21.729Z,999.95
2019-04-03T00:32:21.765Z,999.95
2019-04-03T00:32:23.326Z,999.96
2019-04-03T00:32:23.369Z,1000.02
2019-04-03T00:32:23.379Z,1000.01
2019-04-03T00:32:23.845Z,1000.02
2019-04-03T00:33:17.081Z,999.89
2019-04-03T00:33:17.653Z,999.89
2019-04-03T00:33:18.253Z,999.95
2019-04-03T00:33:18.901Z,999.94
2019-04-03T00:33:19.454Z,999.98
2019-04-03T00:33:20.054Z,999.97
2019-04-03T00:33:22.982Z,999.96
2019-04-03T00:33:23.037Z,1000.01
2019-04-03T00:34:14.710Z,999.82
2019-04-03T00:34:15.306Z,999.86
2019-04-03T00:34:15.910Z,999.89
2019-04-03T00:34:16.609Z,999.92
2019-04-03T00:34:17.106Z,999.93
2019-04-03T00:34:17.743Z,999.97
2019-04-03T00:34:18.309Z,999.97
2019-04-03T00:34:18.909Z,999.99
2019-04-03T00:35:13.387Z,999.86
2019-04-03T00:35:13.984Z,999.89
2019-04-03T00:35:14.699Z,999.89
2019-04-03T00:35:15.183Z,999.94
2019-04-03T00:35:15.813Z,999.94
2019-04-03T00:35:16.383Z,999.97
2019-04-03T00:35:16.982Z,999.96
2019-04-03T00:35:17.583Z,999.94
2019-04-03T00:36:11.088Z,999.86
2019-04-03T00:36:11.632Z,999.87
2019-04-03T00:36:12.246Z,999.88
2019-04-03T00:36:12.836Z,999.96
2019-04-03T00:36:13.434Z,999.97
2019-04-03T00:36:14.033Z,999.97
2019-04-03T00:36:14.631Z,999.96
2019-04-03T00:36:15.232Z,999.94
2019-04-03T00:37:09.712Z,999.89
2019-04-03T00:37:10.309Z,999.88
2019-04-03T00:37:10.909Z,999.91
2019-04-03T00:37:11.511Z,999.90
2019-04-03T00:37:12.111Z,999.95
2019-04-03T00:37:12.709Z,999.96
2019-04-03T00:37:13.307Z,999.97
2019-04-03T00:37:14.073Z,999.95
2019-04-03T00:38:08.410Z,999.88
2019-04-03T00:38:08.989Z,999.87
2019-04-03T00:38:09.587Z,999.89
2019-04-03T00:38:10.186Z,999.90
2019-04-03T00:38:10.790Z,999.93
2019-04-03T00:38:11.384Z,999.97
2019-04-03T00:38:11.988Z,999.98
2019-04-03T00:38:12.588Z,999.99
2019-04-03T00:39:06.040Z,999.90
2019-04-03T00:39:06.639Z,999.90
2019-04-03T00:39:07.240Z,999.92
2019-04-03T00:39:07.837Z,999.96
2019-04-03T00:39:08.437Z,999.97
2019-04-03T00:39:09.038Z,999.99
2019-04-03T00:39:09.637Z,999.97
2019-04-03T00:39:10.236Z,1000.00
2019-04-03T00:40:03.696Z,999.87
2019-04-03T00:40:04.289Z,999.93
2019-04-03T00:40:04.890Z,999.95
2019-04-03T00:40:05.489Z,999.95
2019-04-03T00:40:06.089Z,999.97
2019-04-03T00:40:06.693Z,1000.01
2019-04-03T00:40:07.290Z,999.99
2019-04-03T00:40:07.888Z,1000.00
2019-04-03T00:41:01.349Z,999.89
2019-04-03T00:41:01.940Z,999.92
2019-04-03T00:41:02.542Z,999.91
2019-04-03T00:41:03.140Z,999.92
2019-04-03T00:41:03.739Z,999.92
2019-04-03T00:41:04.340Z,999.98
2019-04-03T00:41:04.941Z,999.97
2019-04-03T00:41:05.664Z,999.97
2019-04-03T00:41:58.999Z,999.87
2019-04-03T00:41:59.594Z,999.92
2019-04-03T00:42:00.195Z,999.91
2019-04-03T00:42:00.794Z,999.92
2019-04-03T00:42:01.393Z,999.96
2019-04-03T00:42:01.993Z,999.92
2019-04-03T00:42:02.592Z,999.98
2019-04-03T00:42:03.296Z,999.99
2019-04-03T00:42:56.649Z,999.84
2019-04-03T00:42:57.244Z,999.87
2019-04-03T00:42:57.849Z,999.90
2019-04-03T00:42:58.443Z,999.93
2019-04-03T00:42:59.043Z,999.93
2019-04-03T00:42:59.644Z,999.93
2019-04-03T00:43:00.398Z,999.96
2019-04-03T00:43:00.842Z,1000.01
2019-04-03T00:43:54.871Z,999.88
2019-04-03T00:43:55.129Z,999.90
2019-04-03T00:43:55.522Z,999.92
2019-04-03T00:43:56.096Z,999.89
2019-04-03T00:43:56.696Z,999.97
2019-04-03T00:43:57.296Z,1000.00
2019-04-03T00:43:57.895Z,999.96
2019-04-03T00:43:58.496Z,1000.02
2019-04-03T00:44:54.698Z,999.87
2019-04-03T00:44:54.699Z,999.89
2019-04-03T00:44:54.739Z,999.92
2019-04-03T00:44:55.002Z,999.95
2019-04-03T00:44:55.376Z,999.95
2019-04-03T00:44:56.085Z,999.95
2019-04-03T00:44:56.576Z,999.99
2019-04-03T00:44:57.236Z,999.97
2019-04-03T00:45:54.044Z,999.86
2019-04-03T00:45:54.143Z,999.85
2019-04-03T00:45:54.537Z,999.93
2019-04-03T00:45:54.563Z,999.93
2019-04-03T00:45:54.666Z,999.91
2019-04-03T00:45:55.198Z,999.96
2019-04-03T00:45:55.395Z,999.96
2019-04-03T00:45:55.847Z,999.99
2019-04-03T00:46:49.303Z,999.83
2019-04-03T00:46:49.900Z,999.86
2019-04-03T00:46:50.575Z,999.87
2019-04-03T00:46:51.101Z,999.95
2019-04-03T00:46:51.716Z,999.93
2019-04-03T00:46:52.299Z,999.99
2019-04-03T00:46:53.874Z,999.99
2019-04-03T00:46:55.179Z,1000.00
2019-04-03T00:47:46.956Z,999.84
2019-04-03T00:47:47.551Z,999.90
2019-04-03T00:47:48.152Z,999.92
2019-04-03T00:47:48.856Z,999.93
2019-04-03T00:47:49.353Z,999.97
2019-04-03T00:47:49.954Z,999.94
2019-04-03T00:47:50.551Z,999.95
2019-04-03T00:47:51.151Z,999.95
2019-04-03T00:48:44.628Z,999.86
2019-04-03T00:48:45.270Z,999.87
2019-04-03T00:48:45.803Z,999.90
2019-04-03T00:48:46.402Z,999.94
2019-04-03T00:48:47.004Z,999.98
2019-04-03T00:48:47.605Z,999.95
2019-04-03T00:48:48.208Z,999.96
2019-04-03T00:48:48.804Z,999.97
2019-04-03T00:49:42.260Z,999.84
2019-04-03T00:49:42.855Z,999.89
2019-04-03T00:49:43.455Z,999.92
2019-04-03T00:49:44.055Z,999.91
2019-04-03T00:49:44.656Z,999.93
2019-04-03T00:49:45.255Z,999.97
2019-04-03T00:49:45.912Z,999.98
2019-04-03T00:49:46.457Z,999.96
2019-04-03T00:50:39.911Z,999.89
2019-04-03T00:50:40.507Z,999.92
2019-04-03T00:50:41.108Z,999.95
2019-04-03T00:50:41.707Z,999.97
2019-04-03T00:50:42.306Z,999.96
2019-04-03T00:50:43.142Z,999.98
2019-04-03T00:50:43.506Z,999.98
2019-04-03T00:50:44.107Z,1000.01
2019-04-03T00:51:37.564Z,999.91
2019-04-03T00:51:38.199Z,999.90
2019-04-03T00:51:38.759Z,999.88
2019-04-03T00:51:39.363Z,999.95
2019-04-03T00:51:39.958Z,999.94
2019-04-03T00:51:40.557Z,999.99
2019-04-03T00:51:41.158Z,999.98
2019-04-03T00:51:41.757Z,999.98
2019-04-03T00:52:35.330Z,999.89
2019-04-03T00:52:35.811Z,999.94
2019-04-03T00:52:36.456Z,999.95
2019-04-03T00:52:37.011Z,1000.00
2019-04-03T00:52:37.614Z,999.97
2019-04-03T00:52:38.210Z,1000.00
2019-04-03T00:52:38.812Z,999.99
2019-04-03T00:52:39.411Z,1000.04
2019-04-03T00:53:33.913Z,999.92
2019-04-03T00:53:34.486Z,999.89
2019-04-03T00:53:35.160Z,999.94
2019-04-03T00:53:35.684Z,999.98
2019-04-03T00:53:36.286Z,999.97
2019-04-03T00:53:36.884Z,999.98
2019-04-03T00:53:37.484Z,1000.00
2019-04-03T00:53:38.084Z,1000.03
2019-04-03T00:54:32.565Z,999.91
2019-04-03T00:54:33.216Z,999.92
2019-04-03T00:54:33.760Z,999.92
2019-04-03T00:54:34.406Z,999.96
2019-04-03T00:54:34.961Z,999.95
2019-04-03T00:54:35.560Z,999.94
2019-04-03T00:54:36.161Z,999.99
2019-04-03T00:54:36.762Z,1000.02
2019-04-03T00:55:30.340Z,999.85
2019-04-03T00:55:30.822Z,999.88
2019-04-03T00:55:31.446Z,999.91
2019-04-03T00:55:32.014Z,999.92
2019-04-03T00:55:32.613Z,999.92
2019-04-03T00:55:33.214Z,999.94
2019-04-03T00:55:33.889Z,999.92
2019-04-03T00:55:34.412Z,999.95
2019-04-03T00:56:27.894Z,999.87
2019-04-03T00:56:28.465Z,999.84
2019-04-03T00:56:29.067Z,999.90
2019-04-03T00:56:29.665Z,999.91
2019-04-03T00:56:30.265Z,999.97
2019-04-03T00:56:30.867Z,999.90
2019-04-03T00:56:31.492Z,999.93
2019-04-03T00:56:32.262Z,999.95
2019-04-03T00:57:26.413Z,999.89
2019-04-03T00:57:26.777Z,999.85
2019-04-03T00:57:26.898Z,999.91
2019-04-03T00:57:27.317Z,999.92
2019-04-03T00:57:27.985Z,999.93
2019-04-03T00:57:28.520Z,999.95
2019-04-03T00:57:29.303Z,999.97
2019-04-03T00:57:29.718Z,999.98
2019-04-03T00:58:25.515Z,999.87
2019-04-03T00:58:25.519Z,999.89
2019-04-03T00:58:25.775Z,999.95
2019-04-03T00:58:25.817Z,999.95
2019-04-03T00:58:26.220Z,999.96
2019-04-03T00:58:26.232Z,999.97
2019-04-03T00:58:26.772Z,999.97
2019-04-03T00:58:27.372Z,999.99
2019-04-03T00:59:21.871Z,999.90
2019-04-03T00:59:22.447Z,999.96
2019-04-03T00:59:23.104Z,999.94
2019-04-03T00:59:24.685Z,999.95
2019-04-03T00:59:24.714Z,999.99
2019-04-03T00:59:26.346Z,999.97
2019-04-03T00:59:26.387Z,999.99
2019-04-03T00:59:26.816Z,1000.01
2019-04-03T01:00:19.587Z,999.91
2019-04-03T01:00:20.100Z,999.95
2019-04-03T01:00:20.702Z,999.96
2019-04-03T01:00:21.300Z,1000.00
2019-04-03T01:00:21.905Z,1000.02
2019-04-03T01:00:22.500Z,1000.01
2019-04-03T01:00:23.106Z,1000.04
2019-04-03T01:00:25.971Z,1000.07
2019-04-03T01:01:18.185Z,999.94
2019-04-03T01:01:18.774Z,999.98
2019-04-03T01:01:19.375Z,999.96
2019-04-03T01:01:19.976Z,1000.02
2019-04-03T01:01:20.576Z,1000.02
2019-04-03T01:01:21.178Z,1000.02
2019-04-03T01:01:21.774Z,1000.03
2019-04-03T01:01:22.515Z,1000.06
2019-04-03T01:02:16.548Z,999.97
2019-04-03T01:02:16.799Z,999.98
2019-04-03T01:02:17.028Z,1000.02
2019-04-03T01:02:17.628Z,1000.02
2019-04-03T01:02:18.227Z,1000.06
2019-04-03T01:02:18.827Z,1000.08
2019-04-03T01:02:19.501Z,1000.07
2019-04-03T01:02:20.028Z,1000.06
2019-04-03T01:03:14.506Z,1000.01
2019-04-03T01:03:15.101Z,1000.01
2019-04-03T01:03:15.912Z,1000.02
2019-04-03T01:03:16.303Z,1000.02
2019-04-03T01:03:16.901Z,1000.07
2019-04-03T01:03:17.501Z,1000.11
2019-04-03T01:03:18.189Z,1000.09
2019-04-03T01:03:18.701Z,1000.09
2019-04-03T01:04:13.206Z,999.99
2019-04-03T01:04:13.778Z,999.98
2019-04-03T01:04:14.467Z,999.97
2019-04-03T01:04:14.979Z,1000.05
2019-04-03T01:04:15.583Z,1000.06
2019-04-03T01:04:16.179Z,1000.06
2019-04-03T01:04:16.778Z,1000.10
2019-04-03T01:04:17.378Z,1000.08
2019-04-03T01:05:10.834Z,999.99
2019-04-03T01:05:11.430Z,999.99
2019-04-03T01:05:12.031Z,1000.02
2019-04-03T01:05:12.816Z,1000.02
2019-04-03T01:05:13.229Z,1000.06
2019-04-03T01:05:13.831Z,1000.10
2019-04-03T01:05:14.430Z,1000.07
2019-04-03T01:05:15.138Z,1000.08
2019-04-03T01:06:08.485Z,1000.04
2019-04-03T01:06:09.082Z,1000.04
2019-04-03T01:06:09.684Z,1000.06
2019-04-03T01:06:10.405Z,1000.06
2019-04-03T01:06:10.883Z,1000.07
2019-04-03T01:06:11.552Z,1000.10
2019-04-03T01:06:12.082Z,1000.10
2019-04-03T01:06:12.681Z,1000.10
2019-04-03T01:07:06.139Z,1000.04
2019-04-03T01:07:06.758Z,1000.04
2019-04-03T01:07:07.334Z,1000.08
2019-04-03T01:07:07.934Z,1000.07
2019-04-03T01:07:08.534Z,1000.10
2019-04-03T01:07:09.134Z,1000.12
2019-04-03T01:07:09.733Z,1000.10
2019-04-03T01:07:10.332Z,1000.12
2019-04-03T01:08:03.788Z,1000.01
2019-04-03T01:08:04.388Z,1000.01
2019-04-03T01:08:05.115Z,1000.05
2019-04-03T01:08:05.587Z,1000.08
2019-04-03T01:08:06.236Z,1000.07
2019-04-03T01:08:06.840Z,1000.09
2019-04-03T01:08:07.396Z,1000.17
2019-04-03T01:08:07.987Z,1000.11
2019-04-03T01:09:02.623Z,1000.03
2019-04-03T01:09:03.062Z,1000.08
2019-04-03T01:09:03.696Z,1000.11
2019-04-03T01:09:04.261Z,1000.10
2019-04-03T01:09:04.860Z,1000.12
2019-04-03T01:09:05.462Z,1000.12
2019-04-03T01:09:06.060Z,1000.14
2019-04-03T01:09:06.659Z,1000.14
2019-04-03T01:10:01.141Z,999.97
2019-04-03T01:10:01.738Z,1000.05
2019-04-03T01:10:02.355Z,1000.06
2019-04-03T01:10:02.935Z,1000.09
2019-04-03T01:10:03.640Z,1000.11
2019-04-03T01:10:04.134Z,1000.15
2019-04-03T01:10:04.745Z,1000.12
2019-04-03T01:10:05.337Z,1000.12
2019-04-03T01:11:00.425Z,1000.03
2019-04-03T01:11:00.937Z,1000.05
2019-04-03T01:11:01.022Z,1000.05
2019-04-03T01:11:01.612Z,1000.09
2019-04-03T01:11:02.311Z,1000.10
2019-04-03T01:11:02.813Z,1000.11
2019-04-03T01:11:03.413Z,1000.13
2019-04-03T01:11:04.011Z,1000.11
2019-04-03T01:11:58.783Z,1000.02
2019-04-03T01:11:58.785Z,1000.06
2019-04-03T01:11:58.792Z,1000.09
2019-04-03T01:12:00.875Z,1000.13
2019-04-03T01:12:00.901Z,1000.11
2019-04-03T01:12:01.119Z,1000.10
2019-04-03T01:12:01.234Z,1000.10
2019-04-03T01:12:01.668Z,1000.12
2019-04-03T01:12:55.222Z,1000.03
2019-04-03T01:12:55.959Z,1000.06
2019-04-03T01:12:56.419Z,1000.09
2019-04-03T01:12:57.019Z,1000.10
2019-04-03T01:12:57.618Z,1000.09
2019-04-03T01:12:58.219Z,1000.13
2019-04-03T01:13:00.028Z,1000.13
2019-04-03T01:13:01.365Z,1000.14
2019-04-03T01:13:52.877Z,1000.02
2019-04-03T01:13:53.470Z,1000.08
2019-04-03T01:13:54.070Z,1000.08
2019-04-03T01:13:54.670Z,1000.09
2019-04-03T01:13:55.270Z,1000.08
2019-04-03T01:13:55.874Z,1000.09
2019-04-03T01:13:56.474Z,1000.13
2019-04-03T01:13:57.069Z,1000.12
2019-04-03T01:14:50.644Z,1000.03
2019-04-03T01:14:51.122Z,1000.07
2019-04-03T01:14:51.722Z,1000.05
2019-04-03T01:14:52.321Z,1000.08
2019-04-03T01:14:52.921Z,1000.11
2019-04-03T01:14:53.522Z,1000.15
2019-04-03T01:14:54.121Z,1000.12
2019-04-03T01:14:54.721Z,1000.13
2019-04-03T01:15:48.181Z,1000.03
2019-04-03T01:15:48.775Z,1000.09
2019-04-03T01:15:49.373Z,1000.08
2019-04-03T01:15:49.973Z,1000.09
2019-04-03T01:15:50.574Z,1000.12
2019-04-03T01:15:51.174Z,1000.12
2019-04-03T01:15:51.776Z,1000.08
2019-04-03T01:15:52.372Z,1000.14
2019-04-03T01:16:45.944Z,1000.03
2019-04-03T01:16:46.426Z,1000.07
2019-04-03T01:16:47.029Z,1000.07
2019-04-03T01:16:47.626Z,1000.10
2019-04-03T01:16:48.227Z,1000.14
2019-04-03T01:16:48.826Z,1000.14
2019-04-03T01:16:49.424Z,1000.13
2019-04-03T01:16:50.027Z,1000.12
2019-04-03T01:17:43.482Z,1000.05
2019-04-03T01:17:44.083Z,1000.05
2019-04-03T01:17:44.677Z,1000.09
2019-04-03T01:17:45.284Z,1000.07
2019-04-03T01:17:45.876Z,1000.13
2019-04-03T01:17:46.551Z,1000.15
2019-04-03T01:17:47.079Z,1000.18
2019-04-03T01:17:47.719Z,1000.16
2019-04-03T01:18:42.157Z,1000.01
2019-04-03T01:18:42.753Z,1000.06
2019-04-03T01:18:43.352Z,1000.10
2019-04-03T01:18:44.081Z,1000.10
2019-04-03T01:18:44.551Z,1000.14
2019-04-03T01:18:45.187Z,1000.14
2019-04-03T01:18:45.752Z,1000.13
2019-04-03T01:18:46.385Z,1000.13
2019-04-03T01:19:39.810Z,1000.04
2019-04-03T01:19:40.405Z,1000.07
2019-04-03T01:19:41.005Z,1000.12
2019-04-03T01:19:41.604Z,1000.14
2019-04-03T01:19:42.336Z,1000.13
2019-04-03T01:19:42.807Z,1000.14
2019-04-03T01:19:43.504Z,1000.17
2019-04-03T01:19:44.004Z,1000.21
2019-04-03T01:20:37.530Z,1000.06
2019-04-03T01:20:38.057Z,1000.12
2019-04-03T01:20:38.746Z,1000.20
2019-04-03T01:20:39.256Z,1000.13
2019-04-03T01:20:39.856Z,1000.17
2019-04-03T01:20:40.457Z,1000.23
2019-04-03T01:20:41.071Z,1000.18
2019-04-03T01:20:41.658Z,1000.19
2019-04-03T01:21:37.183Z,1000.12
2019-04-03T01:21:37.198Z,1000.06
2019-04-03T01:21:37.436Z,1000.14
2019-04-03T01:21:37.545Z,1000.15
2019-04-03T01:21:37.575Z,1000.14
2019-04-03T01:21:38.109Z,1000.22
2019-04-03T01:21:38.707Z,1000.20
2019-04-03T01:21:39.308Z,1000.22
2019-04-03T01:22:32.767Z,1000.07
2019-04-03T01:22:33.360Z,1000.12
2019-04-03T01:22:33.962Z,1000.13
2019-04-03T01:22:35.566Z,1000.16
2019-04-03T01:22:36.865Z,1000.16
2019-04-03T01:22:37.312Z,1000.19
2019-04-03T01:22:37.319Z,1000.24
2019-04-03T01:22:37.345Z,1000.21
2019-04-03T01:23:31.462Z,1000.09
2019-04-03T01:23:32.034Z,1000.12
2019-04-03T01:23:32.636Z,1000.16
2019-04-03T01:23:33.235Z,1000.13
2019-04-03T01:23:33.837Z,1000.14
2019-04-03T01:23:37.018Z,1000.17
2019-04-03T01:23:37.190Z,1000.16
2019-04-03T01:23:37.995Z,1000.21
2019-04-03T01:24:29.090Z,1000.12
2019-04-03T01:24:29.831Z,1000.14
2019-04-03T01:24:30.287Z,1000.16
2019-04-03T01:24:30.894Z,1000.17
2019-04-03T01:24:31.491Z,1000.23
2019-04-03T01:24:32.147Z,1000.20
2019-04-03T01:24:32.688Z,1000.25
2019-04-03T01:24:33.287Z,1000.22
2019-04-03T01:25:26.742Z,1000.17
2019-04-03T01:25:27.341Z,1000.19
2019-04-03T01:25:27.938Z,1000.21
2019-04-03T01:25:28.538Z,1000.20
2019-04-03T01:25:29.138Z,1000.26
2019-04-03T01:25:29.738Z,1000.22
2019-04-03T01:25:30.338Z,1000.24
2019-04-03T01:25:30.938Z,1000.27
2019-04-03T01:26:25.442Z,1000.19
2019-04-03T01:26:26.014Z,1000.21
2019-04-03T01:26:26.614Z,1000.21
2019-04-03T01:26:27.214Z,1000.28
2019-04-03T01:26:27.939Z,1000.29
2019-04-03T01:26:28.415Z,1000.28
2019-04-03T01:26:29.087Z,1000.28
2019-04-03T01:26:29.614Z,1000.30
2019-04-03T01:27:24.140Z,1000.19
2019-04-03T01:27:24.690Z,1000.23
2019-04-03T01:27:25.289Z,1000.22
2019-04-03T01:27:25.890Z,1000.23
2019-04-03T01:27:26.535Z,1000.22
2019-04-03T01:27:27.090Z,1000.28
2019-04-03T01:27:27.694Z,1000.26
2019-04-03T01:27:28.289Z,1000.29
2019-04-03T01:28:22.838Z,1000.18
2019-04-03T01:28:23.364Z,1000.23
2019-04-03T01:28:23.966Z,1000.29
2019-04-03T01:28:24.566Z,1000.30
2019-04-03T01:28:25.165Z,1000.26
2019-04-03T01:28:25.766Z,1000.30
2019-04-03T01:28:26.365Z,1000.28
2019-04-03T01:28:26.965Z,1000.33
2019-04-03T01:29:20.421Z,1000.23
2019-04-03T01:29:21.018Z,1000.22
2019-04-03T01:29:21.618Z,1000.27
2019-04-03T01:29:22.218Z,1000.29
2019-04-03T01:29:22.818Z,1000.30
2019-04-03T01:29:23.418Z,1000.29
2019-04-03T01:29:24.018Z,1000.26
2019-04-03T01:29:24.616Z,1000.28
2019-04-03T01:30:19.217Z,1000.18
2019-04-03T01:30:19.692Z,1000.25
2019-04-03T01:30:20.380Z,1000.27
2019-04-03T01:30:20.892Z,1000.28
2019-04-03T01:30:21.493Z,1000.27
2019-04-03T01:30:22.100Z,1000.31
2019-04-03T01:30:22.692Z,1000.32
2019-04-03T01:30:23.291Z,1000.30
2019-04-03T01:31:17.804Z,1000.25
2019-04-03T01:31:18.371Z,1000.23
2019-04-03T01:31:18.967Z,1000.24
2019-04-03T01:31:19.570Z,1000.25
2019-04-03T01:31:20.165Z,1000.30
2019-04-03T01:31:20.768Z,1000.31
2019-04-03T01:31:21.366Z,1000.32
2019-04-03T01:31:21.966Z,1000.30
2019-04-03T01:32:15.994Z,1000.20
2019-04-03T01:32:16.246Z,1000.22
2019-04-03T01:32:16.785Z,1000.23
2019-04-03T01:32:17.219Z,1000.27
2019-04-03T01:32:17.881Z,1000.25
2019-04-03T01:32:18.421Z,1000.29
2019-04-03T01:32:19.018Z,1000.30
2019-04-03T01:32:19.618Z,1000.30
2019-04-03T01:33:13.082Z,1000.22
2019-04-03T01:33:14.820Z,1000.21
2019-04-03T01:33:16.110Z,1000.24
2019-04-03T01:33:16.438Z,1000.30
2019-04-03T01:33:16.444Z,1000.27
2019-04-03T01:33:16.446Z,1000.33
2019-04-03T01:33:17.165Z,1000.32
2019-04-03T01:33:17.271Z,1000.33
2019-04-03T01:34:11.753Z,1000.17
2019-04-03T01:34:12.350Z,1000.23
2019-04-03T01:34:12.952Z,1000.22
2019-04-03T01:34:13.549Z,1000.26
2019-04-03T01:34:14.188Z,1000.25
2019-04-03T01:34:17.200Z,1000.25
2019-04-03T01:34:17.203Z,1000.32
2019-04-03T01:34:17.812Z,1000.32
2019-04-03T01:35:10.428Z,1000.17
2019-04-03T01:35:11.110Z,1000.24
2019-04-03T01:35:11.622Z,1000.26
2019-04-03T01:35:12.223Z,1000.23
2019-04-03T01:35:12.823Z,1000.28
2019-04-03T01:35:13.422Z,1000.29
2019-04-03T01:35:14.028Z,1000.29
2019-04-03T01:35:15.693Z,1000.33
2019-04-03T01:36:08.104Z,1000.15
2019-04-03T01:36:08.676Z,1000.22
2019-04-03T01:36:09.278Z,1000.21
2019-04-03T01:36:09.876Z,1000.24
2019-04-03T01:36:10.576Z,1000.25
2019-04-03T01:36:11.076Z,1000.24
2019-04-03T01:36:11.690Z,1000.30
2019-04-03T01:36:12.276Z,1000.29
2019-04-03T01:37:06.754Z,1000.20
2019-04-03T01:37:07.353Z,1000.23
2019-04-03T01:37:07.951Z,1000.23
2019-04-03T01:37:08.551Z,1000.27
2019-04-03T01:37:09.150Z,1000.26
2019-04-03T01:37:09.751Z,1000.29
2019-04-03T01:37:10.348Z,1000.32
2019-04-03T01:37:11.042Z,1000.29
2019-04-03T01:38:04.408Z,1000.17
2019-04-03T01:38:05.004Z,1000.21
2019-04-03T01:38:05.604Z,1000.27
2019-04-03T01:38:06.205Z,1000.29
2019-04-03T01:38:06.804Z,1000.25
2019-04-03T01:38:07.524Z,1000.28
2019-04-03T01:38:08.003Z,1000.29
2019-04-03T01:38:08.671Z,1000.31
2019-04-03T01:39:03.081Z,1000.18
2019-04-03T01:39:03.713Z,1000.21
2019-04-03T01:39:04.280Z,1000.25
2019-04-03T01:39:04.878Z,1000.25
2019-04-03T01:39:05.477Z,1000.25
2019-04-03T01:39:06.081Z,1000.26
2019-04-03T01:39:06.684Z,1000.27
2019-04-03T01:39:07.281Z,1000.29
2019-04-03T01:40:00.737Z,1000.16
2019-04-03T01:40:01.331Z,1000.22
2019-04-03T01:40:02.051Z,1000.19
2019-04-03T01:40:02.530Z,1000.23
2019-04-03T01:40:03.140Z,1000.25
2019-04-03T01:40:03.731Z,1000.31
2019-04-03T01:40:04.329Z,1000.26
2019-04-03T01:40:04.931Z,1000.25
2019-04-03T01:40:59.496Z,1000.21
2019-04-03T01:41:00.005Z,1000.22
2019-04-03T01:41:00.603Z,1000.22
2019-04-03T01:41:01.204Z,1000.24
2019-04-03T01:41:01.803Z,1000.28
2019-04-03T01:41:02.403Z,1000.29
2019-04-03T01:41:03.004Z,1000.29
2019-04-03T01:41:03.792Z,1000.28
2019-04-03T01:41:57.175Z,1000.17
2019-04-03T01:41:57.658Z,1000.22
2019-04-03T01:41:58.310Z,1000.24
2019-04-03T01:41:58.863Z,1000.20
2019-04-03T01:41:59.570Z,1000.27
2019-04-03T01:42:00.060Z,1000.25
2019-04-03T01:42:00.657Z,1000.27
2019-04-03T01:42:01.257Z,1000.30
2019-04-03T01:42:54.714Z,1000.13
2019-04-03T01:42:55.315Z,1000.20
2019-04-03T01:42:55.924Z,1000.20
2019-04-03T01:42:56.508Z,1000.21
2019-04-03T01:42:57.109Z,1000.24
2019-04-03T01:42:57.710Z,1000.26
2019-04-03T01:42:58.307Z,1000.28
2019-04-03T01:42:58.914Z,1000.25
2019-04-03T01:43:54.250Z,1000.17
2019-04-03T01:43:54.381Z,1000.19
2019-04-03T01:43:54.588Z,1000.21
2019-04-03T01:43:55.326Z,1000.23
2019-04-03T01:43:55.784Z,1000.22
2019-04-03T01:43:56.390Z,1000.25
2019-04-03T01:43:56.984Z,1000.25
2019-04-03T01:43:57.584Z,1000.26
2019-04-03T01:44:51.040Z,1000.15
2019-04-03T01:44:51.637Z,1000.20
2019-04-03T01:44:55.031Z,1000.21
2019-04-03T01:44:55.100Z,1000.24
2019-04-03T01:44:55.124Z,1000.22
2019-04-03T01:44:55.421Z,1000.25
2019-04-03T01:44:55.473Z,1000.24
2019-04-03T01:44:56.003Z,1000.26
2019-04-03T01:45:48.692Z,1000.10
2019-04-03T01:45:49.290Z,1000.18
2019-04-03T01:45:49.889Z,1000.21
2019-04-03T01:45:50.488Z,1000.18
2019-04-03T01:45:51.089Z,1000.23
2019-04-03T01:45:51.689Z,1000.24
2019-04-03T01:45:52.289Z,1000.21
2019-04-03T01:45:52.892Z,1000.25
2019-04-03T01:46:46.511Z,1000.14
2019-04-03T01:46:46.941Z,1000.17
2019-04-03T01:46:47.796Z,1000.21
2019-04-03T01:46:48.142Z,1000.19
2019-04-03T01:46:48.741Z,1000.22
2019-04-03T01:46:49.341Z,1000.24
2019-04-03T01:46:50.072Z,1000.22
2019-04-03T01:46:50.543Z,1000.24
2019-04-03T01:47:43.995Z,1000.11
2019-04-03T01:47:44.591Z,1000.15
2019-04-03T01:47:45.193Z,1000.20
2019-04-03T01:47:45.802Z,1000.22
2019-04-03T01:47:46.587Z,1000.23
2019-04-03T01:47:46.992Z,1000.26
2019-04-03T01:47:47.682Z,1000.23
2019-04-03T01:47:48.194Z,1000.24
2019-04-03T01:48:42.671Z,1000.11
2019-04-03T01:48:43.447Z,1000.09
2019-04-03T01:48:43.870Z,1000.14
2019-04-03T01:48:44.527Z,1000.16
2019-04-03T01:48:45.066Z,1000.21
2019-04-03T01:48:45.725Z,1000.21
2019-04-03T01:48:46.265Z,1000.26
2019-04-03T01:48:46.868Z,1000.23
2019-04-03T01:49:41.346Z,1000.06
2019-04-03T01:49:41.942Z,1000.10
2019-04-03T01:49:42.542Z,1000.14
2019-04-03T01:49:43.143Z,1000.17
2019-04-03T01:49:43.743Z,1000.15
2019-04-03T01:49:44.344Z,1000.21
2019-04-03T01:49:45.067Z,1000.20
2019-04-03T01:49:45.546Z,1000.22
2019-04-03T01:50:40.021Z,1000.08
2019-04-03T01:50:40.620Z,1000.09
2019-04-03T01:50:41.220Z,1000.11
2019-04-03T01:50:41.819Z,1000.19
2019-04-03T01:50:42.419Z,1000.15
2019-04-03T01:50:43.140Z,1000.13
2019-04-03T01:50:43.618Z,1000.15
2019-04-03T01:50:44.218Z,1000.17
2019-04-03T01:51:37.675Z,1000.05
2019-04-03T01:51:38.271Z,1000.05
2019-04-03T01:51:38.872Z,1000.10
2019-04-03T01:51:39.471Z,1000.12
2019-04-03T01:51:40.072Z,1000.12
2019-04-03T01:51:40.671Z,1000.17
2019-04-03T01:51:41.270Z,1000.18
2019-04-03T01:51:41.873Z,1000.13
2019-04-03T01:52:36.382Z,1000.01
2019-04-03T01:52:36.945Z,1000.01
2019-04-03T01:52:37.545Z,1000.05
2019-04-03T01:52:38.146Z,1000.11
2019-04-03T01:52:38.745Z,1000.12
2019-04-03T01:52:39.352Z,1000.10
2019-04-03T01:52:40.062Z,1000.13
2019-04-03T01:52:40.545Z,1000.16
2019-04-03T01:53:34.034Z,999.97
2019-04-03T01:53:34.599Z,999.99
2019-04-03T01:53:35.201Z,1000.04
2019-04-03T01:53:35.798Z,1000.08
2019-04-03T01:53:36.400Z,1000.02
2019-04-03T01:53:37.000Z,1000.05
2019-04-03T01:53:37.598Z,1000.07
2019-04-03T01:53:38.197Z,1000.08
2019-04-03T01:54:33.261Z,999.96
2019-04-03T01:54:33.712Z,999.97
2019-04-03T01:54:33.727Z,999.99
2019-04-03T01:54:34.035Z,1000.03
2019-04-03T01:54:34.118Z,1000.04
2019-04-03T01:54:34.755Z,1000.07
2019-04-03T01:54:35.250Z,1000.08